sensor_id;sensor_type;location;lat;lon;timestamp;P1;durP1;ratioP1;P2;durP2;ratioP2
20984;SDS011;10651;47.552;7.606;2024-01-15T06:36:38;43.30;;;21.30;;
20984;SDS011;10651;47.552;7.606;2024-01-15T06:39:04;44.93;;;21.57;;
20984;SDS011;10651;47.552;7.606;2024-01-15T06:41:30;52.23;;;27.50;;
20984;SDS011;10651;47.552;7.606;2024-01-15T06:43:56;52.63;;;24.87;;
20984;SDS011;10651;47.552;7.606;2024-01-15T06:46:22;45.87;;;22.93;;
20984;SDS011;10651;47.552;7.606;2024-01-15T06:48:48;47.83;;;23.73;;
20984;SDS011;10651;47.552;7.606;2024-01-15T06:51:15;50.80;;;24.57;;
20984;SDS011;10651;47.552;7.606;2024-01-15T06:53:41;44.73;;;22.43;;
20984;SDS011;10651;47.552;7.606;2024-01-15T06:56:06;47.63;;;22.00;;
20984;SDS011;10651;47.552;7.606;2024-01-15T06:58:32;38.03;;;20.40;;
20984;SDS011;10651;47.552;7.606;2024-01-15T07:00:58;42.17;;;20.50;;
20984;SDS011;10651;47.552;7.606;2024-01-15T07:03:24;37.60;;;20.33;;
20984;SDS011;10651;47.552;7.606;2024-01-15T07:05:50;39.43;;;20.73;;
20984;SDS011;10651;47.552;7.606;2024-01-15T07:08:16;41.03;;;20.10;;
20984;SDS011;10651;47.552;7.606;2024-01-15T07:10:41;37.87;;;19.67;;
20984;SDS011;10651;47.552;7.606;2024-01-15T07:13:07;45.57;;;22.97;;
20984;SDS011;10651;47.552;7.606;2024-01-15T07:15:33;39.67;;;20.50;;
20984;SDS011;10651;47.552;7.606;2024-01-15T07:17:59;47.10;;;23.57;;
20984;SDS011;10651;47.552;7.606;2024-01-15T07:20:25;42.93;;;21.10;;
20984;SDS011;10651;47.552;7.606;2024-01-15T07:22:51;43.47;;;22.30;;
20984;SDS011;10651;47.552;7.606;2024-01-15T07:25:16;41.83;;;22.13;;
20984;SDS011;10651;47.552;7.606;2024-01-15T07:27:42;44.60;;;22.10;;
20984;SDS011;10651;47.552;7.606;2024-01-15T07:30:10;45.50;;;22.47;;
20984;SDS011;10651;47.552;7.606;2024-01-15T07:32:37;37.40;;;20.83;;
20984;SDS011;10651;47.552;7.606;2024-01-15T07:35:03;44.07;;;22.80;;
20984;SDS011;10651;47.552;7.606;2024-01-15T07:37:29;39.07;;;20.63;;
20984;SDS011;10651;47.552;7.606;2024-01-15T07:40:13;40.85;;;20.88;;
20984;SDS011;10651;47.552;7.606;2024-01-15T07:42:39;37.23;;;19.03;;
20984;SDS011;10651;47.552;7.606;2024-01-15T07:45:05;39.60;;;20.77;;
20984;SDS011;10651;47.552;7.606;2024-01-15T07:47:31;36.77;;;20.23;;
20984;SDS011;10651;47.552;7.606;2024-01-15T07:49:57;37.93;;;20.67;;
20984;SDS011;10651;47.552;7.606;2024-01-15T07:52:22;37.47;;;20.57;;
20984;SDS011;10651;47.552;7.606;2024-01-15T07:54:48;33.60;;;19.40;;
20984;SDS011;10651;47.552;7.606;2024-01-15T08:00:04;37.17;;;19.27;;
20984;SDS011;10651;47.552;7.606;2024-01-15T08:02:31;35.73;;;18.07;;
20984;SDS011;10651;47.552;7.606;2024-01-15T08:04:59;32.73;;;17.67;;
20984;SDS011;10651;47.552;7.606;2024-01-15T08:07:25;31.23;;;19.90;;
20984;SDS011;10651;47.552;7.606;2024-01-15T08:09:51;36.50;;;19.07;;
20984;SDS011;10651;47.552;7.606;2024-01-15T08:12:17;34.27;;;19.17;;
20984;SDS011;10651;47.552;7.606;2024-01-15T08:14:43;36.40;;;19.00;;
20984;SDS011;10651;47.552;7.606;2024-01-15T08:17:10;31.50;;;18.27;;
20984;SDS011;10651;47.552;7.606;2024-01-15T08:19:36;32.17;;;19.40;;
20984;SDS011;10651;47.552;7.606;2024-01-15T08:22:01;35.80;;;20.03;;
20984;SDS011;10651;47.552;7.606;2024-01-15T08:24:27;38.03;;;19.33;;
20984;SDS011;10651;47.552;7.606;2024-01-15T08:26:53;25.93;;;15.73;;
20984;SDS011;10651;47.552;7.606;2024-01-15T08:29:21;32.33;;;16.77;;
20984;SDS011;10651;47.552;7.606;2024-01-15T08:31:47;34.00;;;17.97;;
20984;SDS011;10651;47.552;7.606;2024-01-15T08:34:13;36.53;;;19.60;;
20984;SDS011;10651;47.552;7.606;2024-01-15T08:36:39;34.63;;;19.83;;
20984;SDS011;10651;47.552;7.606;2024-01-15T08:39:05;38.70;;;19.27;;
20984;SDS011;10651;47.552;7.606;2024-01-15T08:41:32;35.13;;;19.00;;
20984;SDS011;10651;47.552;7.606;2024-01-15T08:43:58;36.80;;;19.33;;
20984;SDS011;10651;47.552;7.606;2024-01-15T08:46:24;32.57;;;18.63;;
20984;SDS011;10651;47.552;7.606;2024-01-15T08:48:49;34.60;;;19.37;;
20984;SDS011;10651;47.552;7.606;2024-01-15T08:51:16;29.17;;;18.20;;
20984;SDS011;10651;47.552;7.606;2024-01-15T08:53:43;32.43;;;18.33;;
20984;SDS011;10651;47.552;7.606;2024-01-15T08:56:09;31.90;;;17.43;;
20984;SDS011;10651;47.552;7.606;2024-01-15T08:58:35;29.90;;;18.37;;
20984;SDS011;10651;47.552;7.606;2024-01-15T09:01:02;28.23;;;16.90;;
20984;SDS011;10651;47.552;7.606;2024-01-15T09:03:28;26.60;;;15.93;;
20984;SDS011;10651;47.552;7.606;2024-01-15T09:05:53;29.33;;;16.40;;
20984;SDS011;10651;47.552;7.606;2024-01-15T09:08:20;23.87;;;15.97;;
20984;SDS011;10651;47.552;7.606;2024-01-15T09:10:45;26.70;;;16.63;;
20984;SDS011;10651;47.552;7.606;2024-01-15T09:13:11;28.57;;;16.53;;
20984;SDS011;10651;47.552;7.606;2024-01-15T09:15:37;23.87;;;14.53;;
20984;SDS011;10651;47.552;7.606;2024-01-15T09:18:04;23.40;;;14.63;;
20984;SDS011;10651;47.552;7.606;2024-01-15T09:20:30;24.53;;;14.97;;
20984;SDS011;10651;47.552;7.606;2024-01-15T09:22:55;27.30;;;14.60;;
20984;SDS011;10651;47.552;7.606;2024-01-15T09:25:21;20.90;;;13.07;;
20984;SDS011;10651;47.552;7.606;2024-01-15T09:27:47;18.97;;;12.60;;
20984;SDS011;10651;47.552;7.606;2024-01-15T09:30:13;21.17;;;12.93;;
20984;SDS011;10651;47.552;7.606;2024-01-15T09:32:39;19.40;;;12.43;;
20984;SDS011;10651;47.552;7.606;2024-01-15T09:35:05;17.47;;;11.23;;
20984;SDS011;10651;47.552;7.606;2024-01-15T09:37:31;17.95;;;11.80;;
20984;SDS011;10651;47.552;7.606;2024-01-15T09:39:57;15.53;;;10.10;;
20984;SDS011;10651;47.552;7.606;2024-01-15T09:42:23;17.17;;;9.77;;
20984;SDS011;10651;47.552;7.606;2024-01-15T09:44:51;12.57;;;8.77;;
20984;SDS011;10651;47.552;7.606;2024-01-15T09:47:17;13.67;;;8.47;;
20984;SDS011;10651;47.552;7.606;2024-01-15T09:49:45;18.38;;;9.52;;
20984;SDS011;10651;47.552;7.606;2024-01-15T09:52:11;14.32;;;9.10;;
20984;SDS011;10651;47.552;7.606;2024-01-15T09:54:37;13.23;;;8.02;;
20984;SDS011;10651;47.552;7.606;2024-01-15T09:57:07;12.43;;;8.00;;
20984;SDS011;10651;47.552;7.606;2024-01-15T09:59:45;13.10;;;6.93;;
20984;SDS011;10651;47.552;7.606;2024-01-15T10:02:12;10.07;;;6.40;;
20984;SDS011;10651;47.552;7.606;2024-01-15T10:04:42;12.50;;;6.53;;
20984;SDS011;10651;47.552;7.606;2024-01-15T10:07:09;9.48;;;6.10;;
20984;SDS011;10651;47.552;7.606;2024-01-15T10:09:40;8.85;;;6.22;;
20984;SDS011;10651;47.552;7.606;2024-01-15T10:12:06;9.25;;;6.10;;
20984;SDS011;10651;47.552;7.606;2024-01-15T10:14:34;9.02;;;6.05;;
20984;SDS011;10651;47.552;7.606;2024-01-15T10:17:00;7.05;;;5.13;;
20984;SDS011;10651;47.552;7.606;2024-01-15T10:19:26;6.80;;;4.95;;
20984;SDS011;10651;47.552;7.606;2024-01-15T10:21:52;7.13;;;5.30;;
20984;SDS011;10651;47.552;7.606;2024-01-15T10:24:18;11.48;;;5.32;;
20984;SDS011;10651;47.552;7.606;2024-01-15T10:26:43;20.10;;;5.57;;
20984;SDS011;10651;47.552;7.606;2024-01-15T10:29:09;15.40;;;7.97;;
20984;SDS011;10651;47.552;7.606;2024-01-15T10:31:35;17.00;;;9.70;;
20984;SDS011;10651;47.552;7.606;2024-01-15T10:34:09;17.73;;;9.85;;
20984;SDS011;10651;47.552;7.606;2024-01-15T10:36:40;18.38;;;10.15;;
20984;SDS011;10651;47.552;7.606;2024-01-15T10:39:06;34.05;;;15.10;;
20984;SDS011;10651;47.552;7.606;2024-01-15T10:41:33;31.75;;;17.00;;
20984;SDS011;10651;47.552;7.606;2024-01-15T10:43:58;37.97;;;18.38;;
20984;SDS011;10651;47.552;7.606;2024-01-15T10:46:25;32.92;;;17.15;;
20984;SDS011;10651;47.552;7.606;2024-01-15T10:48:51;31.30;;;17.60;;
20984;SDS011;10651;47.552;7.606;2024-01-15T10:51:16;32.63;;;18.25;;
20984;SDS011;10651;47.552;7.606;2024-01-15T10:53:43;35.47;;;18.33;;
20984;SDS011;10651;47.552;7.606;2024-01-15T10:56:10;32.15;;;18.80;;
20984;SDS011;10651;47.552;7.606;2024-01-15T10:58:39;36.50;;;19.02;;
20984;SDS011;10651;47.552;7.606;2024-01-15T11:01:05;34.90;;;19.35;;
20984;SDS011;10651;47.552;7.606;2024-01-15T11:03:31;33.15;;;18.70;;
20984;SDS011;10651;47.552;7.606;2024-01-15T11:05:58;36.13;;;18.83;;
20984;SDS011;10651;47.552;7.606;2024-01-15T11:08:25;32.60;;;18.98;;
20984;SDS011;10651;47.552;7.606;2024-01-15T11:10:51;41.63;;;20.90;;
20984;SDS011;10651;47.552;7.606;2024-01-15T11:13:21;36.47;;;20.50;;
20984;SDS011;10651;47.552;7.606;2024-01-15T11:16:04;52.25;;;25.52;;
20984;SDS011;10651;47.552;7.606;2024-01-15T11:18:34;39.65;;;23.13;;
20984;SDS011;10651;47.552;7.606;2024-01-15T11:23:45;37.05;;;22.00;;
20984;SDS011;10651;47.552;7.606;2024-01-15T11:26:46;38.55;;;22.10;;
20984;SDS011;10651;47.552;7.606;2024-01-15T11:29:06;40.85;;;23.17;;
20984;SDS011;10651;47.552;7.606;2024-01-15T11:34:05;43.30;;;22.80;;
20984;SDS011;10651;47.552;7.606;2024-01-15T11:42:00;40.08;;;23.48;;
20984;SDS011;10651;47.552;7.606;2024-01-15T11:44:30;40.72;;;23.55;;
20984;SDS011;10651;47.552;7.606;2024-01-15T11:46:57;41.35;;;23.15;;
20984;SDS011;10651;47.552;7.606;2024-01-15T11:52:31;40.05;;;23.65;;
20984;SDS011;10651;47.552;7.606;2024-01-15T11:57:45;39.47;;;23.67;;
20984;SDS011;10651;47.552;7.606;2024-01-15T12:00:15;43.55;;;23.75;;
20984;SDS011;10651;47.552;7.606;2024-01-15T12:02:42;43.13;;;23.98;;
20984;SDS011;10651;47.552;7.606;2024-01-15T12:05:09;41.47;;;24.27;;
20984;SDS011;10651;47.552;7.606;2024-01-15T12:07:38;45.35;;;24.60;;
20984;SDS011;10651;47.552;7.606;2024-01-15T12:10:10;42.63;;;24.45;;
20984;SDS011;10651;47.552;7.606;2024-01-15T12:12:39;46.50;;;25.00;;
20984;SDS011;10651;47.552;7.606;2024-01-15T12:15:28;46.70;;;26.70;;
20984;SDS011;10651;47.552;7.606;2024-01-15T12:17:58;49.97;;;25.92;;
20984;SDS011;10651;47.552;7.606;2024-01-15T12:20:27;53.15;;;25.80;;
20984;SDS011;10651;47.552;7.606;2024-01-15T12:22:58;52.28;;;25.85;;
20984;SDS011;10651;47.552;7.606;2024-01-15T12:25:24;48.28;;;25.92;;
20984;SDS011;10651;47.552;7.606;2024-01-15T12:27:53;46.90;;;26.15;;
20984;SDS011;10651;47.552;7.606;2024-01-15T12:30:20;54.60;;;28.50;;
20984;SDS011;10651;47.552;7.606;2024-01-15T12:32:46;49.80;;;27.35;;
20984;SDS011;10651;47.552;7.606;2024-01-15T12:35:12;51.22;;;27.23;;
20984;SDS011;10651;47.552;7.606;2024-01-15T12:37:39;54.03;;;27.88;;
20984;SDS011;10651;47.552;7.606;2024-01-15T12:40:06;50.20;;;26.30;;
20984;SDS011;10651;47.552;7.606;2024-01-15T12:42:43;50.63;;;27.30;;
20984;SDS011;10651;47.552;7.606;2024-01-15T12:45:10;47.28;;;25.27;;
20984;SDS011;10651;47.552;7.606;2024-01-15T12:47:37;44.80;;;26.08;;
20984;SDS011;10651;47.552;7.606;2024-01-15T12:50:08;51.42;;;25.58;;
20984;SDS011;10651;47.552;7.606;2024-01-15T12:52:35;42.92;;;23.27;;
20984;SDS011;10651;47.552;7.606;2024-01-15T12:55:03;48.33;;;24.75;;
20984;SDS011;10651;47.552;7.606;2024-01-15T12:57:30;41.88;;;23.85;;
20984;SDS011;10651;47.552;7.606;2024-01-15T12:59:59;48.03;;;24.38;;
20984;SDS011;10651;47.552;7.606;2024-01-15T13:02:25;42.40;;;23.35;;
20984;SDS011;10651;47.552;7.606;2024-01-15T13:04:50;44.13;;;23.88;;
20984;SDS011;10651;47.552;7.606;2024-01-15T13:07:17;42.00;;;22.48;;
20984;SDS011;10651;47.552;7.606;2024-01-15T13:09:43;44.58;;;22.88;;
20984;SDS011;10651;47.552;7.606;2024-01-15T13:12:08;41.80;;;23.38;;
20984;SDS011;10651;47.552;7.606;2024-01-15T13:14:37;45.63;;;24.02;;
20984;SDS011;10651;47.552;7.606;2024-01-15T13:17:03;45.05;;;23.73;;
20984;SDS011;10651;47.552;7.606;2024-01-15T13:19:32;42.72;;;23.98;;
20984;SDS011;10651;47.552;7.606;2024-01-15T13:21:58;40.92;;;22.55;;
20984;SDS011;10651;47.552;7.606;2024-01-15T13:24:25;41.45;;;23.35;;
20984;SDS011;10651;47.552;7.606;2024-01-15T13:26:51;46.35;;;23.85;;
20984;SDS011;10651;47.552;7.606;2024-01-15T13:29:17;58.90;;;25.25;;
20984;SDS011;10651;47.552;7.606;2024-01-15T13:31:43;41.83;;;23.75;;
20984;SDS011;10651;47.552;7.606;2024-01-15T13:34:11;45.75;;;24.13;;
20984;SDS011;10651;47.552;7.606;2024-01-15T13:36:37;47.85;;;24.60;;
20984;SDS011;10651;47.552;7.606;2024-01-15T13:39:04;43.30;;;24.73;;
20984;SDS011;10651;47.552;7.606;2024-01-15T13:41:34;45.47;;;26.48;;
20984;SDS011;10651;47.552;7.606;2024-01-15T13:44:00;42.30;;;24.55;;
20984;SDS011;10651;47.552;7.606;2024-01-15T13:46:25;48.47;;;24.67;;
20984;SDS011;10651;47.552;7.606;2024-01-15T13:48:51;44.85;;;23.70;;
20984;SDS011;10651;47.552;7.606;2024-01-15T13:51:18;41.65;;;22.17;;
20984;SDS011;10651;47.552;7.606;2024-01-15T13:53:44;43.40;;;23.63;;
20984;SDS011;10651;47.552;7.606;2024-01-15T13:56:09;39.22;;;22.23;;
20984;SDS011;10651;47.552;7.606;2024-01-15T13:58:36;42.88;;;22.25;;
20984;SDS011;10651;47.552;7.606;2024-01-15T14:01:02;40.25;;;21.00;;
20984;SDS011;10651;47.552;7.606;2024-01-15T14:03:31;40.78;;;22.15;;
20984;SDS011;10651;47.552;7.606;2024-01-15T14:05:57;37.53;;;21.73;;
20984;SDS011;10651;47.552;7.606;2024-01-15T14:08:23;35.95;;;20.10;;
20984;SDS011;10651;47.552;7.606;2024-01-15T14:10:49;34.28;;;20.02;;
20984;SDS011;10651;47.552;7.606;2024-01-15T14:13:15;36.70;;;20.88;;
20984;SDS011;10651;47.552;7.606;2024-01-15T14:15:40;33.15;;;19.67;;
20984;SDS011;10651;47.552;7.606;2024-01-15T14:18:06;34.03;;;19.75;;
20984;SDS011;10651;47.552;7.606;2024-01-15T14:20:32;31.88;;;18.77;;
20984;SDS011;10651;47.552;7.606;2024-01-15T14:22:58;33.95;;;19.13;;
20984;SDS011;10651;47.552;7.606;2024-01-15T14:25:24;38.35;;;21.65;;
20984;SDS011;10651;47.552;7.606;2024-01-15T14:27:49;33.40;;;18.73;;
20984;SDS011;10651;47.552;7.606;2024-01-15T14:30:15;33.42;;;19.15;;
20984;SDS011;10651;47.552;7.606;2024-01-15T14:32:41;38.72;;;18.10;;
20984;SDS011;10651;47.552;7.606;2024-01-15T14:35:08;28.65;;;18.10;;
20984;SDS011;10651;47.552;7.606;2024-01-15T14:37:38;31.33;;;16.85;;
20984;SDS011;10651;47.552;7.606;2024-01-15T14:40:07;31.95;;;17.85;;
20984;SDS011;10651;47.552;7.606;2024-01-15T14:42:33;30.15;;;18.25;;
20984;SDS011;10651;47.552;7.606;2024-01-15T14:44:59;35.67;;;17.75;;
20984;SDS011;10651;47.552;7.606;2024-01-15T14:47:26;35.17;;;19.75;;
20984;SDS011;10651;47.552;7.606;2024-01-15T14:49:52;28.65;;;16.90;;
20984;SDS011;10651;47.552;7.606;2024-01-15T14:52:18;33.33;;;16.63;;
20984;SDS011;10651;47.552;7.606;2024-01-15T14:54:45;26.48;;;16.00;;
20984;SDS011;10651;47.552;7.606;2024-01-15T14:57:12;28.40;;;15.55;;
20984;SDS011;10651;47.552;7.606;2024-01-15T14:59:38;27.75;;;16.63;;
20984;SDS011;10651;47.552;7.606;2024-01-15T15:02:04;30.35;;;16.05;;
20984;SDS011;10651;47.552;7.606;2024-01-15T15:04:30;29.88;;;18.25;;
20984;SDS011;10651;47.552;7.606;2024-01-15T15:06:56;26.40;;;15.77;;
20984;SDS011;10651;47.552;7.606;2024-01-15T15:09:22;26.95;;;16.05;;
20984;SDS011;10651;47.552;7.606;2024-01-15T15:11:47;35.15;;;17.50;;
20984;SDS011;10651;47.552;7.606;2024-01-15T15:14:13;27.55;;;15.65;;
20984;SDS011;10651;47.552;7.606;2024-01-15T15:16:39;26.30;;;15.18;;
20984;SDS011;10651;47.552;7.606;2024-01-15T15:19:04;26.10;;;14.88;;
20984;SDS011;10651;47.552;7.606;2024-01-15T15:21:30;28.63;;;15.73;;
20984;SDS011;10651;47.552;7.606;2024-01-15T15:23:55;26.35;;;16.02;;
20984;SDS011;10651;47.552;7.606;2024-01-15T15:26:21;29.63;;;15.82;;
20984;SDS011;10651;47.552;7.606;2024-01-15T15:28:47;26.30;;;15.05;;
20984;SDS011;10651;47.552;7.606;2024-01-15T15:31:14;25.25;;;15.55;;
20984;SDS011;10651;47.552;7.606;2024-01-15T15:33:39;28.45;;;16.35;;
20984;SDS011;10651;47.552;7.606;2024-01-15T15:36:05;26.77;;;15.40;;
20984;SDS011;10651;47.552;7.606;2024-01-15T15:38:31;19.75;;;13.93;;
20984;SDS011;10651;47.552;7.606;2024-01-15T15:40:57;28.27;;;16.20;;
20984;SDS011;10651;47.552;7.606;2024-01-15T15:43:24;27.73;;;15.80;;
20984;SDS011;10651;47.552;7.606;2024-01-15T15:45:50;24.92;;;14.90;;
20984;SDS011;10651;47.552;7.606;2024-01-15T15:48:16;23.88;;;14.57;;
20984;SDS011;10651;47.552;7.606;2024-01-15T15:50:42;26.80;;;14.50;;
20984;SDS011;10651;47.552;7.606;2024-01-15T15:53:08;30.80;;;16.30;;
20984;SDS011;10651;47.552;7.606;2024-01-15T15:55:33;27.13;;;14.95;;
20984;SDS011;10651;47.552;7.606;2024-01-15T15:58:01;27.13;;;14.65;;
20984;SDS011;10651;47.552;7.606;2024-01-15T16:00:28;24.33;;;15.00;;
20984;SDS011;10651;47.552;7.606;2024-01-15T16:02:54;23.80;;;14.60;;
20984;SDS011;10651;47.552;7.606;2024-01-15T16:05:21;26.57;;;15.00;;
20984;SDS011;10651;47.552;7.606;2024-01-15T16:07:47;23.10;;;15.37;;
20984;SDS011;10651;47.552;7.606;2024-01-15T16:10:13;28.80;;;15.33;;
20984;SDS011;10651;47.552;7.606;2024-01-15T16:12:40;27.20;;;16.10;;
20984;SDS011;10651;47.552;7.606;2024-01-15T16:15:21;23.70;;;14.93;;
20984;SDS011;10651;47.552;7.606;2024-01-15T16:17:48;25.83;;;16.13;;
20984;SDS011;10651;47.552;7.606;2024-01-15T16:20:15;24.40;;;15.03;;
20984;SDS011;10651;47.552;7.606;2024-01-15T16:22:41;23.63;;;14.17;;
20984;SDS011;10651;47.552;7.606;2024-01-15T16:25:08;31.53;;;16.07;;
20984;SDS011;10651;47.552;7.606;2024-01-15T16:27:34;23.70;;;14.80;;
20984;SDS011;10651;47.552;7.606;2024-01-15T16:30:00;27.77;;;17.07;;
20984;SDS011;10651;47.552;7.606;2024-01-15T16:32:26;27.97;;;16.83;;
20984;SDS011;10651;47.552;7.606;2024-01-15T16:34:51;26.13;;;16.33;;
20984;SDS011;10651;47.552;7.606;2024-01-15T16:37:18;31.50;;;17.33;;
20984;SDS011;10651;47.552;7.606;2024-01-15T16:39:44;24.70;;;15.40;;
20984;SDS011;10651;47.552;7.606;2024-01-15T16:42:09;27.37;;;16.33;;
20984;SDS011;10651;47.552;7.606;2024-01-15T16:44:35;26.97;;;17.20;;
20984;SDS011;10651;47.552;7.606;2024-01-15T16:47:02;28.10;;;16.50;;
20984;SDS011;10651;47.552;7.606;2024-01-15T16:49:29;29.33;;;16.57;;
20984;SDS011;10651;47.552;7.606;2024-01-15T16:51:54;30.63;;;17.87;;
20984;SDS011;10651;47.552;7.606;2024-01-15T16:54:20;34.87;;;19.27;;
20984;SDS011;10651;47.552;7.606;2024-01-15T16:56:46;30.70;;;17.03;;
20984;SDS011;10651;47.552;7.606;2024-01-15T16:59:12;30.80;;;17.97;;
20984;SDS011;10651;47.552;7.606;2024-01-15T17:01:38;32.20;;;17.57;;
20984;SDS011;10651;47.552;7.606;2024-01-15T17:04:04;32.10;;;18.73;;
20984;SDS011;10651;47.552;7.606;2024-01-15T17:06:31;32.60;;;18.97;;
20984;SDS011;10651;47.552;7.606;2024-01-15T17:08:57;33.13;;;19.60;;
20984;SDS011;10651;47.552;7.606;2024-01-15T17:11:22;29.63;;;18.37;;
20984;SDS011;10651;47.552;7.606;2024-01-15T17:13:49;32.50;;;18.93;;
20984;SDS011;10651;47.552;7.606;2024-01-15T17:16:15;36.83;;;19.77;;
20984;SDS011;10651;47.552;7.606;2024-01-15T17:18:41;29.67;;;17.57;;
20984;SDS011;10651;47.552;7.606;2024-01-15T17:21:08;31.37;;;18.53;;
20984;SDS011;10651;47.552;7.606;2024-01-15T17:23:34;30.10;;;17.43;;
20984;SDS011;10651;47.552;7.606;2024-01-15T17:26:00;34.53;;;19.10;;
20984;SDS011;10651;47.552;7.606;2024-01-15T17:28:38;33.27;;;18.60;;
20984;SDS011;10651;47.552;7.606;2024-01-15T17:31:04;32.53;;;21.02;;
20984;SDS011;10651;47.552;7.606;2024-01-15T17:33:30;35.93;;;20.77;;
20984;SDS011;10651;47.552;7.606;2024-01-15T17:35:56;34.27;;;20.30;;
20984;SDS011;10651;47.552;7.606;2024-01-15T17:38:23;35.95;;;21.50;;
20984;SDS011;10651;47.552;7.606;2024-01-15T17:40:49;35.37;;;20.17;;
20984;SDS011;10651;47.552;7.606;2024-01-15T17:43:15;58.90;;;31.67;;
20984;SDS011;10651;47.552;7.606;2024-01-15T17:45:41;38.60;;;21.27;;
20984;SDS011;10651;47.552;7.606;2024-01-15T17:48:07;36.63;;;21.33;;
20984;SDS011;10651;47.552;7.606;2024-01-15T17:50:36;44.17;;;23.37;;
20984;SDS011;10651;47.552;7.606;2024-01-15T17:53:03;34.33;;;18.73;;
20984;SDS011;10651;47.552;7.606;2024-01-15T17:55:29;32.43;;;19.03;;
20984;SDS011;10651;47.552;7.606;2024-01-15T17:57:55;34.47;;;20.30;;
20984;SDS011;10651;47.552;7.606;2024-01-15T18:00:24;33.30;;;19.20;;
20984;SDS011;10651;47.552;7.606;2024-01-15T18:02:50;34.47;;;21.65;;
20984;SDS011;10651;47.552;7.606;2024-01-15T18:05:18;40.70;;;21.23;;
20984;SDS011;10651;47.552;7.606;2024-01-15T18:07:44;36.88;;;22.35;;
20984;SDS011;10651;47.552;7.606;2024-01-15T18:13:38;37.17;;;21.50;;
20984;SDS011;10651;47.552;7.606;2024-01-15T18:16:07;33.73;;;18.97;;
20984;SDS011;10651;47.552;7.606;2024-01-15T18:18:33;36.93;;;20.13;;
20984;SDS011;10651;47.552;7.606;2024-01-15T18:24:19;33.10;;;17.77;;
20984;SDS011;10651;47.552;7.606;2024-01-15T18:38:06;34.05;;;20.08;;
20984;SDS011;10651;47.552;7.606;2024-01-15T18:40:31;29.10;;;18.23;;
20984;SDS011;10651;47.552;7.606;2024-01-15T19:03:56;25.97;;;15.30;;
20984;SDS011;10651;47.552;7.606;2024-01-15T19:06:27;31.57;;;16.07;;
20984;SDS011;10651;47.552;7.606;2024-01-15T19:12:43;31.17;;;17.07;;
20984;SDS011;10651;47.552;7.606;2024-01-15T19:15:09;33.13;;;16.43;;
20984;SDS011;10651;47.552;7.606;2024-01-15T19:17:35;34.30;;;16.07;;
20984;SDS011;10651;47.552;7.606;2024-01-15T19:20:03;28.57;;;15.73;;
20984;SDS011;10651;47.552;7.606;2024-01-15T19:22:29;31.10;;;16.83;;
20984;SDS011;10651;47.552;7.606;2024-01-15T19:24:55;33.77;;;17.10;;
20984;SDS011;10651;47.552;7.606;2024-01-15T19:27:21;30.77;;;16.23;;
20984;SDS011;10651;47.552;7.606;2024-01-15T19:29:46;26.47;;;15.37;;
20984;SDS011;10651;47.552;7.606;2024-01-15T19:32:17;28.07;;;15.60;;
20984;SDS011;10651;47.552;7.606;2024-01-15T19:34:47;34.43;;;17.10;;
20984;SDS011;10651;47.552;7.606;2024-01-15T19:37:12;26.87;;;15.57;;
20984;SDS011;10651;47.552;7.606;2024-01-15T19:39:38;27.17;;;16.73;;
20984;SDS011;10651;47.552;7.606;2024-01-15T19:42:06;28.83;;;16.50;;
20984;SDS011;10651;47.552;7.606;2024-01-15T19:44:31;24.97;;;14.27;;
20984;SDS011;10651;47.552;7.606;2024-01-15T19:46:57;23.93;;;15.07;;
20984;SDS011;10651;47.552;7.606;2024-01-15T19:49:23;29.07;;;15.83;;
20984;SDS011;10651;47.552;7.606;2024-01-15T19:51:51;24.03;;;14.63;;
20984;SDS011;10651;47.552;7.606;2024-01-15T19:54:19;30.50;;;16.47;;
20984;SDS011;10651;47.552;7.606;2024-01-15T19:56:45;26.00;;;14.33;;
20984;SDS011;10651;47.552;7.606;2024-01-15T19:59:11;28.30;;;15.50;;
20984;SDS011;10651;47.552;7.606;2024-01-15T20:01:36;24.30;;;15.60;;
20984;SDS011;10651;47.552;7.606;2024-01-15T20:04:05;24.07;;;14.67;;
20984;SDS011;10651;47.552;7.606;2024-01-15T20:06:34;25.83;;;15.37;;
20984;SDS011;10651;47.552;7.606;2024-01-15T20:08:59;25.13;;;14.73;;
20984;SDS011;10651;47.552;7.606;2024-01-15T20:11:26;25.20;;;14.87;;
20984;SDS011;10651;47.552;7.606;2024-01-15T20:13:54;26.07;;;14.30;;
20984;SDS011;10651;47.552;7.606;2024-01-15T20:16:20;21.30;;;13.10;;
20984;SDS011;10651;47.552;7.606;2024-01-15T20:18:47;25.80;;;14.98;;
20984;SDS011;10651;47.552;7.606;2024-01-15T20:21:13;27.17;;;15.43;;
20984;SDS011;10651;47.552;7.606;2024-01-15T20:23:39;25.80;;;14.47;;
20984;SDS011;10651;47.552;7.606;2024-01-15T20:26:05;27.60;;;16.10;;
20984;SDS011;10651;47.552;7.606;2024-01-15T20:28:31;23.53;;;12.97;;
20984;SDS011;10651;47.552;7.606;2024-01-15T20:31:01;23.58;;;14.75;;
20984;SDS011;10651;47.552;7.606;2024-01-15T20:33:28;24.13;;;14.90;;
20984;SDS011;10651;47.552;7.606;2024-01-15T20:35:55;23.77;;;13.70;;
20984;SDS011;10651;47.552;7.606;2024-01-15T20:38:21;22.63;;;13.93;;
20984;SDS011;10651;47.552;7.606;2024-01-15T20:40:46;26.00;;;14.30;;
20984;SDS011;10651;47.552;7.606;2024-01-15T20:43:12;18.50;;;12.40;;
20984;SDS011;10651;47.552;7.606;2024-01-15T20:45:41;26.88;;;14.32;;
20984;SDS011;10651;47.552;7.606;2024-01-15T20:48:06;19.27;;;13.37;;
20984;SDS011;10651;47.552;7.606;2024-01-15T20:50:35;24.37;;;13.30;;
20984;SDS011;10651;47.552;7.606;2024-01-15T20:53:01;21.93;;;12.27;;
20984;SDS011;10651;47.552;7.606;2024-01-15T20:55:27;21.93;;;13.00;;
20984;SDS011;10651;47.552;7.606;2024-01-15T20:57:53;27.63;;;12.50;;
20984;SDS011;10651;47.552;7.606;2024-01-15T21:00:22;22.40;;;12.43;;
20984;SDS011;10651;47.552;7.606;2024-01-15T21:02:47;23.30;;;12.97;;
20984;SDS011;10651;47.552;7.606;2024-01-15T21:05:18;28.10;;;13.00;;
